Terminal Aerodrome Forecast
Issued by NWS Bismarck, ND

Home | Current Version | Previous Version | Text Only | Print | Product List | Glossary Off
Versions: 1 2 3 4 5 6 7 8 9 10 11 12 13 14 15 16 17 18 19 20 21 22

000
FTUS43 KBIS 050528
TAFISN
TAF
KISN 050528Z 0506/0606 02014KT P6SM SCT100
     FM050900 02012KT P6SM VCTS SCT025 BKN035CB OVC100
     FM051500 01015KT P6SM VCSH SCT040 BKN080
     FM060000 35008KT P6SM SCT030 SCT070=

USA.gov is the U.S. government's official web portal to all federal, state and local government web resources and services.